sensor_id;sensor_type;location;lat;lon;timestamp;P1;durP1;ratioP1;P2;durP2;ratioP2
15246;SDS011;7726;48.820;9.248;2024-01-15T00:00:19;14.10;;;8.43;;
15246;SDS011;7726;48.820;9.248;2024-01-15T00:02:47;16.20;;;8.87;;
15246;SDS011;7726;48.820;9.248;2024-01-15T00:05:14;14.10;;;8.03;;
15246;SDS011;7726;48.820;9.248;2024-01-15T00:07:42;14.43;;;8.20;;
15246;SDS011;7726;48.820;9.248;2024-01-15T00:10:09;16.80;;;8.17;;
15246;SDS011;7726;48.820;9.248;2024-01-15T00:12:37;13.73;;;8.03;;
15246;SDS011;7726;48.820;9.248;2024-01-15T00:15:04;13.57;;;7.93;;
15246;SDS011;7726;48.820;9.248;2024-01-15T00:17:31;16.23;;;8.63;;
15246;SDS011;7726;48.820;9.248;2024-01-15T00:19:59;15.80;;;8.50;;
15246;SDS011;7726;48.820;9.248;2024-01-15T00:22:26;15.03;;;7.87;;
15246;SDS011;7726;48.820;9.248;2024-01-15T00:24:54;16.17;;;8.07;;
15246;SDS011;7726;48.820;9.248;2024-01-15T00:27:21;15.20;;;8.37;;
15246;SDS011;7726;48.820;9.248;2024-01-15T00:29:49;13.03;;;7.77;;
15246;SDS011;7726;48.820;9.248;2024-01-15T00:32:17;15.40;;;8.47;;
15246;SDS011;7726;48.820;9.248;2024-01-15T00:34:45;15.87;;;7.83;;
15246;SDS011;7726;48.820;9.248;2024-01-15T00:37:12;14.90;;;7.67;;
15246;SDS011;7726;48.820;9.248;2024-01-15T00:39:39;14.03;;;8.00;;
15246;SDS011;7726;48.820;9.248;2024-01-15T00:42:08;16.67;;;8.53;;
15246;SDS011;7726;48.820;9.248;2024-01-15T00:44:35;15.73;;;7.90;;
15246;SDS011;7726;48.820;9.248;2024-01-15T00:47:03;15.97;;;8.27;;
15246;SDS011;7726;48.820;9.248;2024-01-15T00:49:30;14.77;;;7.73;;
15246;SDS011;7726;48.820;9.248;2024-01-15T00:51:57;13.57;;;7.80;;
15246;SDS011;7726;48.820;9.248;2024-01-15T00:54:24;15.07;;;7.90;;
15246;SDS011;7726;48.820;9.248;2024-01-15T00:56:51;13.17;;;6.93;;
15246;SDS011;7726;48.820;9.248;2024-01-15T00:59:21;12.87;;;6.77;;
15246;SDS011;7726;48.820;9.248;2024-01-15T01:01:48;14.67;;;7.30;;
15246;SDS011;7726;48.820;9.248;2024-01-15T01:04:15;17.33;;;8.07;;
15246;SDS011;7726;48.820;9.248;2024-01-15T01:06:42;14.77;;;7.80;;
15246;SDS011;7726;48.820;9.248;2024-01-15T01:09:09;15.40;;;7.87;;
15246;SDS011;7726;48.820;9.248;2024-01-15T01:11:37;13.00;;;7.30;;
15246;SDS011;7726;48.820;9.248;2024-01-15T01:14:04;12.73;;;6.77;;
15246;SDS011;7726;48.820;9.248;2024-01-15T01:16:32;13.53;;;8.07;;
15246;SDS011;7726;48.820;9.248;2024-01-15T01:19:03;14.67;;;6.93;;
15246;SDS011;7726;48.820;9.248;2024-01-15T01:21:31;13.87;;;7.27;;
15246;SDS011;7726;48.820;9.248;2024-01-15T01:23:58;14.40;;;7.53;;
15246;SDS011;7726;48.820;9.248;2024-01-15T01:26:25;14.07;;;7.40;;
15246;SDS011;7726;48.820;9.248;2024-01-15T01:28:52;13.67;;;7.30;;
15246;SDS011;7726;48.820;9.248;2024-01-15T01:31:19;13.57;;;7.27;;
15246;SDS011;7726;48.820;9.248;2024-01-15T01:33:48;14.80;;;7.00;;
15246;SDS011;7726;48.820;9.248;2024-01-15T01:36:15;12.50;;;7.17;;
15246;SDS011;7726;48.820;9.248;2024-01-15T01:38:41;13.50;;;6.43;;
15246;SDS011;7726;48.820;9.248;2024-01-15T01:41:08;12.37;;;6.93;;
15246;SDS011;7726;48.820;9.248;2024-01-15T01:43:36;13.57;;;7.57;;
15246;SDS011;7726;48.820;9.248;2024-01-15T01:46:03;13.20;;;7.13;;
15246;SDS011;7726;48.820;9.248;2024-01-15T01:48:30;15.10;;;7.50;;
15246;SDS011;7726;48.820;9.248;2024-01-15T01:51:00;10.70;;;5.93;;
15246;SDS011;7726;48.820;9.248;2024-01-15T01:53:28;12.10;;;6.90;;
15246;SDS011;7726;48.820;9.248;2024-01-15T01:55:56;12.60;;;6.53;;
15246;SDS011;7726;48.820;9.248;2024-01-15T01:58:24;12.57;;;6.80;;
15246;SDS011;7726;48.820;9.248;2024-01-15T02:00:52;13.67;;;6.83;;
15246;SDS011;7726;48.820;9.248;2024-01-15T02:03:20;10.73;;;6.40;;
15246;SDS011;7726;48.820;9.248;2024-01-15T02:05:47;12.07;;;6.67;;
15246;SDS011;7726;48.820;9.248;2024-01-15T02:08:16;12.30;;;6.70;;
15246;SDS011;7726;48.820;9.248;2024-01-15T02:10:44;11.37;;;6.03;;
15246;SDS011;7726;48.820;9.248;2024-01-15T02:13:11;10.47;;;6.40;;
15246;SDS011;7726;48.820;9.248;2024-01-15T02:15:38;11.97;;;7.07;;
15246;SDS011;7726;48.820;9.248;2024-01-15T02:18:06;11.83;;;5.97;;
15246;SDS011;7726;48.820;9.248;2024-01-15T02:20:33;13.07;;;6.70;;
15246;SDS011;7726;48.820;9.248;2024-01-15T02:23:03;11.63;;;6.77;;
15246;SDS011;7726;48.820;9.248;2024-01-15T02:25:30;12.20;;;6.50;;
15246;SDS011;7726;48.820;9.248;2024-01-15T02:27:57;11.63;;;5.97;;
15246;SDS011;7726;48.820;9.248;2024-01-15T02:30:25;11.70;;;6.87;;
15246;SDS011;7726;48.820;9.248;2024-01-15T02:32:52;14.07;;;6.70;;
15246;SDS011;7726;48.820;9.248;2024-01-15T02:35:19;11.73;;;6.50;;
15246;SDS011;7726;48.820;9.248;2024-01-15T02:37:46;13.27;;;6.93;;
15246;SDS011;7726;48.820;9.248;2024-01-15T02:40:15;12.40;;;6.63;;
15246;SDS011;7726;48.820;9.248;2024-01-15T02:42:42;12.20;;;6.50;;
15246;SDS011;7726;48.820;9.248;2024-01-15T02:45:09;12.13;;;6.83;;
15246;SDS011;7726;48.820;9.248;2024-01-15T02:47:36;12.03;;;6.27;;
15246;SDS011;7726;48.820;9.248;2024-01-15T02:50:04;11.90;;;7.00;;
15246;SDS011;7726;48.820;9.248;2024-01-15T02:52:31;13.20;;;6.53;;
15246;SDS011;7726;48.820;9.248;2024-01-15T02:54:58;10.80;;;6.50;;
15246;SDS011;7726;48.820;9.248;2024-01-15T02:57:27;13.07;;;6.53;;
15246;SDS011;7726;48.820;9.248;2024-01-15T02:59:54;12.33;;;6.97;;
15246;SDS011;7726;48.820;9.248;2024-01-15T03:02:21;11.20;;;6.80;;
15246;SDS011;7726;48.820;9.248;2024-01-15T03:04:48;12.57;;;6.80;;
15246;SDS011;7726;48.820;9.248;2024-01-15T03:07:15;14.47;;;6.83;;
15246;SDS011;7726;48.820;9.248;2024-01-15T03:09:43;11.40;;;6.50;;
15246;SDS011;7726;48.820;9.248;2024-01-15T03:12:10;13.33;;;6.30;;
15246;SDS011;7726;48.820;9.248;2024-01-15T03:14:38;13.53;;;7.10;;
15246;SDS011;7726;48.820;9.248;2024-01-15T03:17:06;14.23;;;6.67;;
15246;SDS011;7726;48.820;9.248;2024-01-15T03:19:35;12.20;;;6.23;;
15246;SDS011;7726;48.820;9.248;2024-01-15T03:22:02;11.50;;;6.13;;
15246;SDS011;7726;48.820;9.248;2024-01-15T03:24:31;10.43;;;6.40;;
15246;SDS011;7726;48.820;9.248;2024-01-15T03:26:58;13.73;;;6.83;;
15246;SDS011;7726;48.820;9.248;2024-01-15T03:29:25;13.07;;;6.47;;
15246;SDS011;7726;48.820;9.248;2024-01-15T03:31:54;13.47;;;6.77;;
15246;SDS011;7726;48.820;9.248;2024-01-15T03:34:21;11.23;;;6.10;;
15246;SDS011;7726;48.820;9.248;2024-01-15T03:36:48;12.47;;;6.13;;
15246;SDS011;7726;48.820;9.248;2024-01-15T03:39:15;11.87;;;6.97;;
15246;SDS011;7726;48.820;9.248;2024-01-15T03:41:43;13.80;;;6.70;;
15246;SDS011;7726;48.820;9.248;2024-01-15T03:44:10;12.30;;;6.67;;
15246;SDS011;7726;48.820;9.248;2024-01-15T03:46:37;11.40;;;6.87;;
15246;SDS011;7726;48.820;9.248;2024-01-15T03:49:05;11.63;;;6.77;;
15246;SDS011;7726;48.820;9.248;2024-01-15T03:51:32;13.63;;;6.60;;
15246;SDS011;7726;48.820;9.248;2024-01-15T03:54:00;12.97;;;6.50;;
15246;SDS011;7726;48.820;9.248;2024-01-15T03:56:27;10.33;;;6.53;;
15246;SDS011;7726;48.820;9.248;2024-01-15T03:58:54;12.13;;;6.90;;
15246;SDS011;7726;48.820;9.248;2024-01-15T04:01:21;12.40;;;6.63;;
15246;SDS011;7726;48.820;9.248;2024-01-15T04:03:48;12.37;;;6.30;;
15246;SDS011;7726;48.820;9.248;2024-01-15T04:06:17;10.60;;;6.20;;
15246;SDS011;7726;48.820;9.248;2024-01-15T04:08:44;12.27;;;7.03;;
15246;SDS011;7726;48.820;9.248;2024-01-15T04:11:11;10.43;;;6.23;;
15246;SDS011;7726;48.820;9.248;2024-01-15T04:13:38;11.70;;;6.43;;
15246;SDS011;7726;48.820;9.248;2024-01-15T04:16:05;12.37;;;6.87;;
15246;SDS011;7726;48.820;9.248;2024-01-15T04:18:32;11.93;;;6.67;;
15246;SDS011;7726;48.820;9.248;2024-01-15T04:21:00;12.30;;;6.87;;
15246;SDS011;7726;48.820;9.248;2024-01-15T04:23:28;10.73;;;5.77;;
15246;SDS011;7726;48.820;9.248;2024-01-15T04:25:55;10.87;;;5.83;;
15246;SDS011;7726;48.820;9.248;2024-01-15T04:28:22;8.10;;;5.13;;
15246;SDS011;7726;48.820;9.248;2024-01-15T04:30:49;10.97;;;5.63;;
15246;SDS011;7726;48.820;9.248;2024-01-15T04:33:17;7.23;;;5.03;;
15246;SDS011;7726;48.820;9.248;2024-01-15T04:35:44;7.97;;;5.30;;
15246;SDS011;7726;48.820;9.248;2024-01-15T04:38:11;11.30;;;5.90;;
15246;SDS011;7726;48.820;9.248;2024-01-15T04:40:39;9.07;;;5.07;;
15246;SDS011;7726;48.820;9.248;2024-01-15T04:43:07;8.70;;;5.50;;
15246;SDS011;7726;48.820;9.248;2024-01-15T04:45:34;8.50;;;5.10;;
15246;SDS011;7726;48.820;9.248;2024-01-15T04:48:01;8.77;;;5.20;;
15246;SDS011;7726;48.820;9.248;2024-01-15T04:50:28;8.57;;;5.27;;
15246;SDS011;7726;48.820;9.248;2024-01-15T04:52:55;9.43;;;5.53;;
15246;SDS011;7726;48.820;9.248;2024-01-15T04:55:22;8.30;;;5.13;;
15246;SDS011;7726;48.820;9.248;2024-01-15T04:57:51;9.70;;;5.77;;
15246;SDS011;7726;48.820;9.248;2024-01-15T05:00:18;8.63;;;4.97;;
15246;SDS011;7726;48.820;9.248;2024-01-15T05:02:45;14.83;;;6.53;;
15246;SDS011;7726;48.820;9.248;2024-01-15T05:05:12;10.73;;;5.53;;
15246;SDS011;7726;48.820;9.248;2024-01-15T05:07:40;11.47;;;5.90;;
15246;SDS011;7726;48.820;9.248;2024-01-15T05:10:07;11.07;;;6.23;;
15246;SDS011;7726;48.820;9.248;2024-01-15T05:12:34;10.63;;;5.30;;
15246;SDS011;7726;48.820;9.248;2024-01-15T05:15:03;10.33;;;5.37;;
15246;SDS011;7726;48.820;9.248;2024-01-15T05:17:33;11.63;;;6.00;;
15246;SDS011;7726;48.820;9.248;2024-01-15T05:20:00;10.37;;;5.47;;
15246;SDS011;7726;48.820;9.248;2024-01-15T05:22:28;9.53;;;5.43;;
15246;SDS011;7726;48.820;9.248;2024-01-15T05:24:55;12.17;;;5.77;;
15246;SDS011;7726;48.820;9.248;2024-01-15T05:27:22;9.40;;;5.60;;
15246;SDS011;7726;48.820;9.248;2024-01-15T05:29:49;12.03;;;5.70;;
15246;SDS011;7726;48.820;9.248;2024-01-15T05:32:18;12.33;;;5.73;;
15246;SDS011;7726;48.820;9.248;2024-01-15T05:34:45;9.10;;;5.20;;
15246;SDS011;7726;48.820;9.248;2024-01-15T05:37:12;10.40;;;5.40;;
15246;SDS011;7726;48.820;9.248;2024-01-15T05:39:39;10.20;;;5.77;;
15246;SDS011;7726;48.820;9.248;2024-01-15T05:42:06;9.23;;;5.83;;
15246;SDS011;7726;48.820;9.248;2024-01-15T05:44:33;9.70;;;6.03;;
15246;SDS011;7726;48.820;9.248;2024-01-15T05:47:01;9.43;;;5.27;;
15246;SDS011;7726;48.820;9.248;2024-01-15T05:49:30;9.30;;;5.97;;
15246;SDS011;7726;48.820;9.248;2024-01-15T05:51:57;9.13;;;5.30;;
15246;SDS011;7726;48.820;9.248;2024-01-15T05:54:24;10.60;;;5.90;;
15246;SDS011;7726;48.820;9.248;2024-01-15T05:56:51;10.20;;;5.40;;
15246;SDS011;7726;48.820;9.248;2024-01-15T05:59:19;8.23;;;5.07;;
15246;SDS011;7726;48.820;9.248;2024-01-15T06:01:46;8.40;;;4.77;;
15246;SDS011;7726;48.820;9.248;2024-01-15T06:04:13;7.70;;;5.10;;
15246;SDS011;7726;48.820;9.248;2024-01-15T06:06:41;8.83;;;5.00;;
15246;SDS011;7726;48.820;9.248;2024-01-15T06:09:08;6.73;;;4.70;;
15246;SDS011;7726;48.820;9.248;2024-01-15T06:11:36;8.17;;;5.30;;
15246;SDS011;7726;48.820;9.248;2024-01-15T06:14:03;9.00;;;5.57;;
15246;SDS011;7726;48.820;9.248;2024-01-15T06:16:30;8.00;;;5.50;;
15246;SDS011;7726;48.820;9.248;2024-01-15T06:18:57;10.17;;;5.50;;
15246;SDS011;7726;48.820;9.248;2024-01-15T06:21:24;8.70;;;5.33;;
15246;SDS011;7726;48.820;9.248;2024-01-15T06:23:53;7.80;;;5.50;;
15246;SDS011;7726;48.820;9.248;2024-01-15T06:26:21;8.23;;;5.30;;
15246;SDS011;7726;48.820;9.248;2024-01-15T06:28:48;9.13;;;5.43;;
15246;SDS011;7726;48.820;9.248;2024-01-15T06:31:15;9.20;;;5.73;;
15246;SDS011;7726;48.820;9.248;2024-01-15T06:33:43;11.87;;;6.40;;
15246;SDS011;7726;48.820;9.248;2024-01-15T06:36:12;11.03;;;6.20;;
15246;SDS011;7726;48.820;9.248;2024-01-15T06:38:39;8.43;;;5.63;;
15246;SDS011;7726;48.820;9.248;2024-01-15T06:41:07;8.77;;;5.67;;
15246;SDS011;7726;48.820;9.248;2024-01-15T06:43:35;8.60;;;5.40;;
15246;SDS011;7726;48.820;9.248;2024-01-15T06:46:02;9.20;;;5.67;;
15246;SDS011;7726;48.820;9.248;2024-01-15T06:48:29;10.40;;;6.13;;
15246;SDS011;7726;48.820;9.248;2024-01-15T06:50:56;9.53;;;6.07;;
15246;SDS011;7726;48.820;9.248;2024-01-15T06:53:23;10.13;;;6.00;;
15246;SDS011;7726;48.820;9.248;2024-01-15T06:55:51;10.20;;;6.07;;
15246;SDS011;7726;48.820;9.248;2024-01-15T06:58:19;9.97;;;6.43;;
15246;SDS011;7726;48.820;9.248;2024-01-15T07:00:46;8.33;;;5.93;;
15246;SDS011;7726;48.820;9.248;2024-01-15T07:03:13;8.20;;;5.20;;
15246;SDS011;7726;48.820;9.248;2024-01-15T07:05:41;8.43;;;5.10;;
15246;SDS011;7726;48.820;9.248;2024-01-15T07:08:08;8.00;;;5.43;;
15246;SDS011;7726;48.820;9.248;2024-01-15T07:10:35;10.83;;;6.20;;
15246;SDS011;7726;48.820;9.248;2024-01-15T07:13:02;10.53;;;6.20;;
15246;SDS011;7726;48.820;9.248;2024-01-15T07:15:32;8.93;;;5.20;;
15246;SDS011;7726;48.820;9.248;2024-01-15T07:17:59;8.27;;;5.67;;
15246;SDS011;7726;48.820;9.248;2024-01-15T07:20:26;9.33;;;5.37;;
15246;SDS011;7726;48.820;9.248;2024-01-15T07:22:53;8.63;;;5.20;;
15246;SDS011;7726;48.820;9.248;2024-01-15T07:25:20;6.93;;;5.60;;
15246;SDS011;7726;48.820;9.248;2024-01-15T07:27:47;11.20;;;5.67;;
15246;SDS011;7726;48.820;9.248;2024-01-15T07:30:15;9.30;;;6.27;;
15246;SDS011;7726;48.820;9.248;2024-01-15T07:32:43;9.23;;;5.50;;
15246;SDS011;7726;48.820;9.248;2024-01-15T07:35:10;9.63;;;5.07;;
15246;SDS011;7726;48.820;9.248;2024-01-15T07:37:37;8.33;;;5.27;;
15246;SDS011;7726;48.820;9.248;2024-01-15T07:40:05;9.93;;;5.30;;
15246;SDS011;7726;48.820;9.248;2024-01-15T07:42:33;9.03;;;5.27;;
15246;SDS011;7726;48.820;9.248;2024-01-15T07:45:00;9.37;;;5.77;;
15246;SDS011;7726;48.820;9.248;2024-01-15T07:47:28;8.53;;;5.03;;
15246;SDS011;7726;48.820;9.248;2024-01-15T07:49:56;8.17;;;4.80;;
15246;SDS011;7726;48.820;9.248;2024-01-15T07:52:23;11.23;;;5.33;;
15246;SDS011;7726;48.820;9.248;2024-01-15T07:54:51;8.20;;;4.57;;
15246;SDS011;7726;48.820;9.248;2024-01-15T07:57:18;6.33;;;4.37;;
15246;SDS011;7726;48.820;9.248;2024-01-15T07:59:45;9.50;;;4.67;;
15246;SDS011;7726;48.820;9.248;2024-01-15T08:02:12;6.23;;;4.40;;
15246;SDS011;7726;48.820;9.248;2024-01-15T08:04:39;9.30;;;5.27;;
15246;SDS011;7726;48.820;9.248;2024-01-15T08:07:09;7.97;;;4.77;;
15246;SDS011;7726;48.820;9.248;2024-01-15T08:09:36;6.70;;;4.73;;
15246;SDS011;7726;48.820;9.248;2024-01-15T08:12:03;7.77;;;4.93;;
15246;SDS011;7726;48.820;9.248;2024-01-15T08:14:31;9.60;;;5.00;;
15246;SDS011;7726;48.820;9.248;2024-01-15T08:16:59;9.53;;;4.60;;
15246;SDS011;7726;48.820;9.248;2024-01-15T08:19:26;6.83;;;4.60;;
15246;SDS011;7726;48.820;9.248;2024-01-15T08:21:53;5.80;;;4.30;;
15246;SDS011;7726;48.820;9.248;2024-01-15T08:24:22;10.13;;;5.03;;
15246;SDS011;7726;48.820;9.248;2024-01-15T08:26:49;7.40;;;5.00;;
15246;SDS011;7726;48.820;9.248;2024-01-15T08:29:16;8.37;;;5.27;;
15246;SDS011;7726;48.820;9.248;2024-01-15T08:31:46;6.73;;;4.50;;
15246;SDS011;7726;48.820;9.248;2024-01-15T08:34:13;8.90;;;4.83;;
15246;SDS011;7726;48.820;9.248;2024-01-15T08:36:40;7.33;;;4.83;;
15246;SDS011;7726;48.820;9.248;2024-01-15T08:39:07;8.37;;;4.47;;
15246;SDS011;7726;48.820;9.248;2024-01-15T08:41:36;9.07;;;5.47;;
15246;SDS011;7726;48.820;9.248;2024-01-15T08:44:03;7.27;;;5.07;;
15246;SDS011;7726;48.820;9.248;2024-01-15T08:46:30;7.57;;;4.80;;
15246;SDS011;7726;48.820;9.248;2024-01-15T08:48:57;9.57;;;5.17;;
15246;SDS011;7726;48.820;9.248;2024-01-15T08:51:25;8.33;;;5.13;;
15246;SDS011;7726;48.820;9.248;2024-01-15T08:53:53;8.30;;;4.90;;
15246;SDS011;7726;48.820;9.248;2024-01-15T08:56:20;8.17;;;4.47;;
15246;SDS011;7726;48.820;9.248;2024-01-15T08:58:48;6.63;;;4.60;;
15246;SDS011;7726;48.820;9.248;2024-01-15T09:01:15;7.17;;;4.70;;
15246;SDS011;7726;48.820;9.248;2024-01-15T09:03:44;8.57;;;5.40;;
15246;SDS011;7726;48.820;9.248;2024-01-15T09:06:13;7.30;;;4.20;;
15246;SDS011;7726;48.820;9.248;2024-01-15T09:08:40;9.63;;;4.80;;
15246;SDS011;7726;48.820;9.248;2024-01-15T09:11:07;6.90;;;4.37;;
15246;SDS011;7726;48.820;9.248;2024-01-15T09:13:34;7.77;;;4.57;;
15246;SDS011;7726;48.820;9.248;2024-01-15T09:16:03;6.60;;;4.00;;
15246;SDS011;7726;48.820;9.248;2024-01-15T09:18:30;6.90;;;3.87;;
15246;SDS011;7726;48.820;9.248;2024-01-15T09:20:58;7.93;;;3.37;;
15246;SDS011;7726;48.820;9.248;2024-01-15T09:23:25;6.03;;;3.87;;
15246;SDS011;7726;48.820;9.248;2024-01-15T09:25:52;5.87;;;3.77;;
15246;SDS011;7726;48.820;9.248;2024-01-15T09:28:19;6.50;;;3.87;;
15246;SDS011;7726;48.820;9.248;2024-01-15T09:30:46;6.60;;;3.80;;
15246;SDS011;7726;48.820;9.248;2024-01-15T09:33:15;6.93;;;3.83;;
15246;SDS011;7726;48.820;9.248;2024-01-15T09:35:42;7.30;;;3.40;;
15246;SDS011;7726;48.820;9.248;2024-01-15T09:38:09;6.57;;;4.07;;
15246;SDS011;7726;48.820;9.248;2024-01-15T09:40:36;6.13;;;4.17;;
15246;SDS011;7726;48.820;9.248;2024-01-15T09:43:05;7.07;;;3.80;;
15246;SDS011;7726;48.820;9.248;2024-01-15T09:45:32;7.70;;;3.93;;
15246;SDS011;7726;48.820;9.248;2024-01-15T09:47:59;7.60;;;4.40;;
15246;SDS011;7726;48.820;9.248;2024-01-15T09:50:28;7.23;;;3.67;;
15246;SDS011;7726;48.820;9.248;2024-01-15T09:52:55;7.40;;;3.97;;
15246;SDS011;7726;48.820;9.248;2024-01-15T09:55:23;6.67;;;3.70;;
15246;SDS011;7726;48.820;9.248;2024-01-15T09:57:50;5.37;;;3.23;;
15246;SDS011;7726;48.820;9.248;2024-01-15T10:00:17;6.67;;;3.97;;
15246;SDS011;7726;48.820;9.248;2024-01-15T10:02:45;10.53;;;3.87;;
15246;SDS011;7726;48.820;9.248;2024-01-15T10:05:12;6.53;;;3.40;;
15246;SDS011;7726;48.820;9.248;2024-01-15T10:07:41;8.33;;;4.10;;
15246;SDS011;7726;48.820;9.248;2024-01-15T10:10:09;5.80;;;3.07;;
15246;SDS011;7726;48.820;9.248;2024-01-15T10:12:39;9.00;;;3.50;;
15246;SDS011;7726;48.820;9.248;2024-01-15T10:15:06;8.07;;;3.57;;
15246;SDS011;7726;48.820;9.248;2024-01-15T10:17:36;4.97;;;3.40;;
15246;SDS011;7726;48.820;9.248;2024-01-15T10:20:07;7.07;;;3.97;;
15246;SDS011;7726;48.820;9.248;2024-01-15T10:22:34;7.33;;;4.10;;
15246;SDS011;7726;48.820;9.248;2024-01-15T10:25:05;6.70;;;3.27;;
15246;SDS011;7726;48.820;9.248;2024-01-15T10:27:32;6.77;;;3.33;;
15246;SDS011;7726;48.820;9.248;2024-01-15T10:29:59;7.87;;;3.70;;
15246;SDS011;7726;48.820;9.248;2024-01-15T10:32:28;7.83;;;3.57;;
15246;SDS011;7726;48.820;9.248;2024-01-15T10:34:55;7.30;;;4.17;;
15246;SDS011;7726;48.820;9.248;2024-01-15T10:37:23;6.33;;;3.80;;
15246;SDS011;7726;48.820;9.248;2024-01-15T10:39:50;5.47;;;3.40;;
15246;SDS011;7726;48.820;9.248;2024-01-15T10:42:19;4.97;;;3.23;;
15246;SDS011;7726;48.820;9.248;2024-01-15T10:44:46;6.00;;;3.53;;
15246;SDS011;7726;48.820;9.248;2024-01-15T10:47:13;7.00;;;3.57;;
15246;SDS011;7726;48.820;9.248;2024-01-15T10:49:41;3.87;;;2.73;;
15246;SDS011;7726;48.820;9.248;2024-01-15T10:52:08;4.67;;;3.30;;
15246;SDS011;7726;48.820;9.248;2024-01-15T10:54:35;6.67;;;3.80;;
15246;SDS011;7726;48.820;9.248;2024-01-15T10:57:04;5.70;;;2.60;;
15246;SDS011;7726;48.820;9.248;2024-01-15T10:59:32;5.23;;;3.20;;
15246;SDS011;7726;48.820;9.248;2024-01-15T11:02:00;4.40;;;2.90;;
15246;SDS011;7726;48.820;9.248;2024-01-15T11:04:27;6.77;;;2.83;;
15246;SDS011;7726;48.820;9.248;2024-01-15T11:06:55;6.13;;;2.90;;
15246;SDS011;7726;48.820;9.248;2024-01-15T11:09:22;6.27;;;3.03;;
15246;SDS011;7726;48.820;9.248;2024-01-15T11:11:52;7.17;;;3.13;;
15246;SDS011;7726;48.820;9.248;2024-01-15T11:14:38;5.43;;;2.90;;
15246;SDS011;7726;48.820;9.248;2024-01-15T11:17:05;5.13;;;3.10;;
15246;SDS011;7726;48.820;9.248;2024-01-15T11:19:36;5.47;;;3.17;;
15246;SDS011;7726;48.820;9.248;2024-01-15T11:22:05;5.53;;;2.60;;
15246;SDS011;7726;48.820;9.248;2024-01-15T11:24:36;4.70;;;3.43;;
15246;SDS011;7726;48.820;9.248;2024-01-15T11:27:03;5.10;;;3.00;;
15246;SDS011;7726;48.820;9.248;2024-01-15T11:29:31;6.23;;;3.37;;
15246;SDS011;7726;48.820;9.248;2024-01-15T11:32:01;4.60;;;2.93;;
15246;SDS011;7726;48.820;9.248;2024-01-15T11:37:15;5.73;;;3.13;;
15246;SDS011;7726;48.820;9.248;2024-01-15T11:39:42;4.00;;;3.20;;
15246;SDS011;7726;48.820;9.248;2024-01-15T11:42:10;3.97;;;3.47;;
15246;SDS011;7726;48.820;9.248;2024-01-15T11:44:37;6.13;;;3.67;;
15246;SDS011;7726;48.820;9.248;2024-01-15T11:47:06;4.43;;;3.37;;
15246;SDS011;7726;48.820;9.248;2024-01-15T11:49:40;5.20;;;3.23;;
15246;SDS011;7726;48.820;9.248;2024-01-15T11:52:12;6.60;;;3.67;;
15246;SDS011;7726;48.820;9.248;2024-01-15T11:54:42;4.13;;;3.63;;
15246;SDS011;7726;48.820;9.248;2024-01-15T11:57:18;6.57;;;3.70;;
15246;SDS011;7726;48.820;9.248;2024-01-15T11:59:48;6.97;;;4.07;;
15246;SDS011;7726;48.820;9.248;2024-01-15T12:02:17;6.13;;;4.13;;
15246;SDS011;7726;48.820;9.248;2024-01-15T12:04:44;7.33;;;3.97;;
15246;SDS011;7726;48.820;9.248;2024-01-15T12:07:11;4.37;;;3.33;;
15246;SDS011;7726;48.820;9.248;2024-01-15T12:09:42;5.73;;;3.87;;
15246;SDS011;7726;48.820;9.248;2024-01-15T12:12:10;5.07;;;3.23;;
15246;SDS011;7726;48.820;9.248;2024-01-15T12:14:40;5.57;;;3.47;;
15246;SDS011;7726;48.820;9.248;2024-01-15T12:17:07;6.53;;;3.60;;
15246;SDS011;7726;48.820;9.248;2024-01-15T12:19:37;4.87;;;3.90;;
15246;SDS011;7726;48.820;9.248;2024-01-15T12:22:04;4.00;;;3.20;;
15246;SDS011;7726;48.820;9.248;2024-01-15T12:24:32;7.03;;;3.73;;
15246;SDS011;7726;48.820;9.248;2024-01-15T12:27:00;5.13;;;3.80;;
15246;SDS011;7726;48.820;9.248;2024-01-15T12:29:27;6.67;;;3.87;;
15246;SDS011;7726;48.820;9.248;2024-01-15T12:31:55;3.87;;;2.97;;
15246;SDS011;7726;48.820;9.248;2024-01-15T12:34:22;6.73;;;4.00;;
15246;SDS011;7726;48.820;9.248;2024-01-15T12:36:50;5.93;;;3.73;;
15246;SDS011;7726;48.820;9.248;2024-01-15T12:39:18;4.77;;;3.27;;
15246;SDS011;7726;48.820;9.248;2024-01-15T12:41:47;7.10;;;4.13;;
15246;SDS011;7726;48.820;9.248;2024-01-15T12:44:14;4.50;;;3.57;;
15246;SDS011;7726;48.820;9.248;2024-01-15T12:46:41;5.37;;;3.80;;
15246;SDS011;7726;48.820;9.248;2024-01-15T12:49:09;3.67;;;3.10;;
15246;SDS011;7726;48.820;9.248;2024-01-15T12:51:36;4.20;;;3.43;;
15246;SDS011;7726;48.820;9.248;2024-01-15T12:54:05;6.00;;;3.43;;
15246;SDS011;7726;48.820;9.248;2024-01-15T12:56:32;3.30;;;3.00;;
15246;SDS011;7726;48.820;9.248;2024-01-15T12:58:59;4.80;;;3.57;;
15246;SDS011;7726;48.820;9.248;2024-01-15T13:01:26;4.53;;;3.47;;
15246;SDS011;7726;48.820;9.248;2024-01-15T13:03:53;4.87;;;3.27;;
15246;SDS011;7726;48.820;9.248;2024-01-15T13:06:21;4.67;;;3.43;;
15246;SDS011;7726;48.820;9.248;2024-01-15T13:08:48;4.07;;;3.10;;
15246;SDS011;7726;48.820;9.248;2024-01-15T13:11:16;4.53;;;3.40;;
15246;SDS011;7726;48.820;9.248;2024-01-15T13:13:44;5.33;;;3.30;;
15246;SDS011;7726;48.820;9.248;2024-01-15T13:16:11;4.93;;;3.30;;
15246;SDS011;7726;48.820;9.248;2024-01-15T13:18:38;4.17;;;3.20;;
15246;SDS011;7726;48.820;9.248;2024-01-15T13:21:06;4.93;;;3.50;;
15246;SDS011;7726;48.820;9.248;2024-01-15T13:23:33;5.03;;;3.03;;
15246;SDS011;7726;48.820;9.248;2024-01-15T13:26:01;5.43;;;3.30;;
15246;SDS011;7726;48.820;9.248;2024-01-15T13:28:30;3.90;;;3.17;;
15246;SDS011;7726;48.820;9.248;2024-01-15T13:30:57;4.10;;;2.90;;
15246;SDS011;7726;48.820;9.248;2024-01-15T13:33:24;5.50;;;3.20;;
15246;SDS011;7726;48.820;9.248;2024-01-15T13:35:51;6.23;;;3.60;;
15246;SDS011;7726;48.820;9.248;2024-01-15T13:38:18;4.97;;;3.30;;
15246;SDS011;7726;48.820;9.248;2024-01-15T13:40:45;4.33;;;2.63;;
15246;SDS011;7726;48.820;9.248;2024-01-15T13:43:12;3.87;;;2.80;;
15246;SDS011;7726;48.820;9.248;2024-01-15T13:45:42;3.80;;;2.67;;
15246;SDS011;7726;48.820;9.248;2024-01-15T13:48:09;4.50;;;2.17;;
15246;SDS011;7726;48.820;9.248;2024-01-15T13:50:36;3.07;;;1.90;;
15246;SDS011;7726;48.820;9.248;2024-01-15T13:53:03;3.07;;;2.50;;
15246;SDS011;7726;48.820;9.248;2024-01-15T13:55:31;4.27;;;2.47;;
15246;SDS011;7726;48.820;9.248;2024-01-15T13:57:58;4.43;;;2.17;;
15246;SDS011;7726;48.820;9.248;2024-01-15T14:00:26;2.97;;;1.77;;
15246;SDS011;7726;48.820;9.248;2024-01-15T14:02:54;2.33;;;2.10;;
15246;SDS011;7726;48.820;9.248;2024-01-15T14:05:22;2.70;;;2.10;;
15246;SDS011;7726;48.820;9.248;2024-01-15T14:07:49;3.87;;;2.07;;
15246;SDS011;7726;48.820;9.248;2024-01-15T14:10:17;2.60;;;2.20;;
15246;SDS011;7726;48.820;9.248;2024-01-15T14:12:44;3.23;;;2.27;;
15246;SDS011;7726;48.820;9.248;2024-01-15T14:15:11;2.30;;;2.10;;
15246;SDS011;7726;48.820;9.248;2024-01-15T14:17:38;2.93;;;2.40;;
15246;SDS011;7726;48.820;9.248;2024-01-15T14:20:07;3.10;;;2.70;;
15246;SDS011;7726;48.820;9.248;2024-01-15T14:22:35;3.53;;;2.33;;
15246;SDS011;7726;48.820;9.248;2024-01-15T14:25:02;2.97;;;2.40;;
15246;SDS011;7726;48.820;9.248;2024-01-15T14:27:29;2.83;;;2.53;;
15246;SDS011;7726;48.820;9.248;2024-01-15T14:29:57;4.00;;;2.40;;
15246;SDS011;7726;48.820;9.248;2024-01-15T14:32:24;4.27;;;3.03;;
15246;SDS011;7726;48.820;9.248;2024-01-15T14:34:52;3.57;;;2.53;;
15246;SDS011;7726;48.820;9.248;2024-01-15T14:37:20;3.13;;;2.77;;
15246;SDS011;7726;48.820;9.248;2024-01-15T14:39:48;3.07;;;2.77;;
15246;SDS011;7726;48.820;9.248;2024-01-15T14:42:15;3.93;;;3.10;;
15246;SDS011;7726;48.820;9.248;2024-01-15T14:44:42;4.43;;;3.47;;
15246;SDS011;7726;48.820;9.248;2024-01-15T14:47:09;4.57;;;3.50;;
15246;SDS011;7726;48.820;9.248;2024-01-15T14:49:36;5.23;;;3.30;;
15246;SDS011;7726;48.820;9.248;2024-01-15T14:52:03;4.40;;;3.80;;
15246;SDS011;7726;48.820;9.248;2024-01-15T14:54:32;4.27;;;3.80;;
15246;SDS011;7726;48.820;9.248;2024-01-15T14:57:00;4.37;;;3.90;;
15246;SDS011;7726;48.820;9.248;2024-01-15T14:59:27;4.53;;;4.13;;